createdAt,value
2017-11-26T00:01:56.804Z,1.70
2017-11-26T00:04:24.347Z,1.70
2017-11-26T00:06:51.907Z,1.70
2017-11-26T00:09:19.448Z,1.60
2017-11-26T00:11:47.009Z,1.60
2017-11-26T00:14:14.579Z,1.60
2017-11-26T00:16:42.116Z,1.60
2017-11-26T00:19:10.447Z,1.60
2017-11-26T00:21:37.981Z,1.60
2017-11-26T00:24:05.524Z,1.50
2017-11-26T00:26:33.110Z,1.60
2017-11-26T00:29:00.651Z,1.60
2017-11-26T00:31:28.226Z,1.70
2017-11-26T00:33:55.761Z,1.70
2017-11-26T00:36:23.301Z,1.70
2017-11-26T00:38:51.620Z,1.80
2017-11-26T00:41:19.148Z,1.70
2017-11-26T00:43:47.500Z,1.80
2017-11-26T00:46:15.080Z,1.80
2017-11-26T00:48:42.647Z,1.80
2017-11-26T00:51:10.988Z,1.80
2017-11-26T00:53:38.573Z,1.80
2017-11-26T00:56:06.140Z,1.70
2017-11-26T00:58:34.445Z,1.50
2017-11-26T01:01:01.987Z,1.50
2017-11-26T01:03:30.309Z,1.50
2017-11-26T01:05:57.868Z,1.40
2017-11-26T01:08:25.451Z,1.40
2017-11-26T01:10:52.992Z,1.40
2017-11-26T01:13:20.555Z,1.40
2017-11-26T01:15:48.212Z,1.30
2017-11-26T01:18:15.742Z,1.30
2017-11-26T01:20:43.344Z,1.20
2017-11-26T01:23:10.907Z,1.20
2017-11-26T01:25:38.452Z,1.10
2017-11-26T01:28:06.022Z,1.10
2017-11-26T01:30:33.588Z,1.10
2017-11-26T01:33:01.156Z,1.10
2017-11-26T01:35:28.692Z,1.10
2017-11-26T01:37:56.247Z,1.10
2017-11-26T01:40:23.805Z,1.10
2017-11-26T01:42:51.378Z,1.00
2017-11-26T01:45:18.956Z,1.00
2017-11-26T01:47:46.516Z,0.90
2017-11-26T01:50:14.051Z,0.80
2017-11-26T01:52:41.599Z,0.80
2017-11-26T01:55:09.206Z,0.80
2017-11-26T01:57:36.792Z,0.70
2017-11-26T02:00:05.184Z,0.80
2017-11-26T02:02:32.775Z,0.80
2017-11-26T02:05:00.342Z,0.80
2017-11-26T02:07:27.914Z,0.90
2017-11-26T02:09:55.499Z,0.90
2017-11-26T02:12:23.076Z,1.00
2017-11-26T02:14:51.444Z,1.10
2017-11-26T02:17:19.766Z,1.10
2017-11-26T02:19:47.373Z,1.10
2017-11-26T02:22:14.955Z,1.10
2017-11-26T02:24:43.272Z,1.10
2017-11-26T02:27:10.843Z,1.00
2017-11-26T02:29:38.413Z,1.00
2017-11-26T02:32:18.205Z,1.00
2017-11-26T02:34:57.569Z,1.10
2017-11-26T02:37:25.142Z,1.00
2017-11-26T02:39:52.688Z,0.90
2017-11-26T02:42:20.362Z,0.90
2017-11-26T02:44:47.903Z,0.80
2017-11-26T02:47:15.437Z,0.80
2017-11-26T02:49:43.775Z,0.80
2017-11-26T02:52:11.333Z,0.80
2017-11-26T02:54:38.928Z,0.80
2017-11-26T02:57:07.235Z,0.80
2017-11-26T02:59:34.816Z,0.80
2017-11-26T03:02:02.356Z,0.80
2017-11-26T03:04:29.900Z,0.70
2017-11-26T03:06:58.228Z,0.70
2017-11-26T03:09:25.794Z,0.70
2017-11-26T03:11:53.358Z,0.70
2017-11-26T03:14:20.903Z,0.70
2017-11-26T03:16:48.469Z,0.70
2017-11-26T03:19:17.632Z,0.80
2017-11-26T03:21:45.196Z,0.70
2017-11-26T03:24:12.751Z,0.80
2017-11-26T03:26:40.316Z,0.80
2017-11-26T03:29:07.889Z,0.80
2017-11-26T03:31:35.448Z,0.70
2017-11-26T03:34:04.900Z,0.60
2017-11-26T03:36:32.443Z,0.60
2017-11-26T03:38:59.984Z,0.50
2017-11-26T03:41:27.583Z,0.50
2017-11-26T03:43:55.120Z,0.50
2017-11-26T03:46:22.720Z,0.50
2017-11-26T03:48:51.050Z,0.50
2017-11-26T03:51:18.598Z,0.50
2017-11-26T03:53:46.159Z,0.50
2017-11-26T03:56:13.705Z,0.40
2017-11-26T03:58:41.278Z,0.40
2017-11-26T04:01:08.947Z,0.30
2017-11-26T04:03:36.492Z,0.30
2017-11-26T04:06:04.039Z,0.20
2017-11-26T04:08:31.587Z,0.20
2017-11-26T04:10:59.912Z,0.30
2017-11-26T04:13:28.229Z,0.40
2017-11-26T04:15:56.555Z,0.30
2017-11-26T04:18:24.142Z,0.30
2017-11-26T04:20:51.684Z,0.30
2017-11-26T04:23:19.253Z,0.20
2017-11-26T04:25:46.797Z,0.30
2017-11-26T04:28:14.387Z,0.30
2017-11-26T04:30:41.926Z,0.30
2017-11-26T04:33:09.489Z,0.40
2017-11-26T04:35:37.040Z,0.40
2017-11-26T04:38:04.582Z,0.40
2017-11-26T04:40:32.182Z,0.40
2017-11-26T04:42:59.735Z,0.40
2017-11-26T04:45:27.293Z,0.30
2017-11-26T04:47:54.834Z,0.30
2017-11-26T04:50:22.417Z,0.30
2017-11-26T04:52:49.980Z,0.30
2017-11-26T04:55:17.524Z,0.20
2017-11-26T04:57:45.082Z,0.20
2017-11-26T05:00:12.644Z,0.10
2017-11-26T05:02:40.229Z,0.10
2017-11-26T05:05:07.795Z,0.00
2017-11-26T05:07:36.120Z,0.10
2017-11-26T05:10:03.733Z,0.10
2017-11-26T05:12:31.276Z,0.20
2017-11-26T05:14:58.840Z,0.30
2017-11-26T05:17:26.379Z,0.50
2017-11-26T05:19:53.915Z,0.60
2017-11-26T05:22:21.480Z,0.70
2017-11-26T05:24:49.017Z,0.70
2017-11-26T05:27:17.372Z,0.80
2017-11-26T05:29:44.928Z,0.80
2017-11-26T05:32:12.472Z,0.80
2017-11-26T05:34:40.035Z,0.90
2017-11-26T05:37:07.578Z,0.90
2017-11-26T05:39:35.183Z,0.90
2017-11-26T05:42:02.715Z,0.90
2017-11-26T05:44:30.244Z,1.00
2017-11-26T05:46:57.836Z,1.00
2017-11-26T05:49:25.367Z,1.00
2017-11-26T05:51:53.015Z,1.00
2017-11-26T05:54:20.552Z,1.10
2017-11-26T05:56:48.094Z,1.10
2017-11-26T05:59:15.667Z,1.10
2017-11-26T06:01:43.208Z,1.20
2017-11-26T06:04:10.775Z,1.20
2017-11-26T06:06:38.306Z,1.20
2017-11-26T06:09:05.839Z,1.20
2017-11-26T06:11:33.383Z,1.30
2017-11-26T06:14:01.676Z,1.30
2017-11-26T06:16:29.241Z,1.30
2017-11-26T06:18:56.775Z,1.30
2017-11-26T06:21:25.110Z,1.30
2017-11-26T06:23:52.645Z,1.30
2017-11-26T06:26:20.196Z,1.20
2017-11-26T06:28:47.752Z,1.20
2017-11-26T06:31:15.285Z,1.10
2017-11-26T06:33:43.612Z,1.10
2017-11-26T06:36:11.174Z,1.10
2017-11-26T06:38:38.740Z,1.10
2017-11-26T06:41:06.280Z,1.00
2017-11-26T06:43:33.827Z,1.00
2017-11-26T06:46:01.399Z,1.10
2017-11-26T06:48:28.977Z,1.10
2017-11-26T06:50:56.636Z,1.10
2017-11-26T06:53:24.177Z,1.10
2017-11-26T06:55:51.715Z,1.10
2017-11-26T06:58:20.875Z,1.00
2017-11-26T07:00:48.422Z,1.00
2017-11-26T07:03:16.102Z,1.00
2017-11-26T07:05:43.657Z,0.90
2017-11-26T07:08:11.184Z,0.90
2017-11-26T07:10:38.777Z,0.90
2017-11-26T07:13:06.360Z,0.90
2017-11-26T07:15:33.913Z,1.00
2017-11-26T07:18:01.484Z,1.00
2017-11-26T07:20:29.798Z,1.10
2017-11-26T07:22:57.371Z,1.10
2017-11-26T07:25:24.919Z,1.10
2017-11-26T07:27:52.488Z,1.10
2017-11-26T07:30:20.047Z,1.10
2017-11-26T07:32:47.585Z,1.00
2017-11-26T07:35:15.932Z,1.00
2017-11-26T07:37:43.487Z,1.00
2017-11-26T07:40:11.057Z,1.10
2017-11-26T07:42:38.678Z,1.10
2017-11-26T07:45:06.259Z,1.10
2017-11-26T07:47:33.812Z,1.20
2017-11-26T07:50:01.339Z,1.20
2017-11-26T07:52:28.904Z,1.20
2017-11-26T07:54:56.452Z,1.30
2017-11-26T07:57:23.988Z,1.30
2017-11-26T07:59:51.564Z,1.40
2017-11-26T08:02:25.921Z,1.30
2017-11-26T08:04:53.861Z,1.20
2017-11-26T08:07:21.433Z,1.20
2017-11-26T08:09:48.992Z,1.10
2017-11-26T08:12:16.564Z,1.10
2017-11-26T08:14:44.108Z,1.10
2017-11-26T08:17:11.690Z,1.10
2017-11-26T08:19:39.224Z,1.10
2017-11-26T08:22:06.761Z,1.10
2017-11-26T08:24:35.097Z,1.10
2017-11-26T08:27:02.632Z,1.10
2017-11-26T08:29:30.184Z,1.30
2017-11-26T08:31:57.880Z,1.40
2017-11-26T08:34:25.473Z,1.60
2017-11-26T08:36:53.003Z,1.80
2017-11-26T08:39:20.696Z,1.90
2017-11-26T08:41:48.659Z,1.90
2017-11-26T08:44:16.996Z,2.00
2017-11-26T08:46:44.553Z,2.00
2017-11-26T08:49:12.178Z,2.10
2017-11-26T08:51:39.766Z,2.20
2017-11-26T08:54:07.303Z,2.20
2017-11-26T08:56:35.672Z,2.30
2017-11-26T08:59:03.248Z,2.30
2017-11-26T09:01:32.473Z,2.50
2017-11-26T09:04:00.021Z,2.50
2017-11-26T09:06:30.044Z,2.60
2017-11-26T09:09:02.238Z,2.60
2017-11-26T09:11:30.525Z,2.70
2017-11-26T09:13:58.313Z,2.70
2017-11-26T09:16:25.915Z,2.80
2017-11-26T09:18:53.576Z,2.90
2017-11-26T09:21:21.121Z,3.00
2017-11-26T09:24:03.663Z,3.10
2017-11-26T09:26:31.195Z,3.00
2017-11-26T09:28:59.496Z,3.10
2017-11-26T09:31:27.038Z,3.10
2017-11-26T09:33:55.348Z,3.10
2017-11-26T09:36:22.912Z,3.10
2017-11-26T09:38:50.443Z,3.10
2017-11-26T09:41:18.009Z,3.20
2017-11-26T09:43:58.813Z,3.20
2017-11-26T09:46:26.381Z,3.20
2017-11-26T09:48:53.917Z,3.20
2017-11-26T09:51:40.644Z,3.20
2017-11-26T09:54:08.244Z,3.20
2017-11-26T09:56:36.577Z,3.20
2017-11-26T09:59:04.112Z,3.10
2017-11-26T10:01:31.682Z,3.10
2017-11-26T10:03:59.217Z,3.10
2017-11-26T10:06:26.771Z,3.00
2017-11-26T10:08:55.086Z,3.20
2017-11-26T10:11:22.648Z,3.30
2017-11-26T10:13:50.244Z,3.20
2017-11-26T10:16:17.788Z,3.30
2017-11-26T10:18:45.320Z,3.30
2017-11-26T10:21:12.875Z,3.30
2017-11-26T10:23:40.853Z,3.30
2017-11-26T10:26:13.835Z,3.40
2017-11-26T10:28:41.369Z,3.40
2017-11-26T10:31:09.672Z,3.30
2017-11-26T10:33:37.211Z,3.30
2017-11-26T10:36:04.809Z,3.30
2017-11-26T10:38:32.371Z,3.30
2017-11-26T10:41:00.676Z,3.30
2017-11-26T10:43:28.299Z,3.30
2017-11-26T10:48:56.040Z,3.30
2017-11-26T10:51:24.365Z,3.20
2017-11-26T10:53:51.903Z,3.20
2017-11-26T10:56:20.832Z,3.10
2017-11-26T10:58:48.408Z,3.00
2017-11-26T11:01:15.991Z,3.00
2017-11-26T11:03:44.300Z,3.00
2017-11-26T11:06:11.854Z,3.00
2017-11-26T11:08:45.759Z,3.00
2017-11-26T11:11:13.336Z,2.90
2017-11-26T11:13:44.805Z,2.80
2017-11-26T11:16:12.386Z,2.80
2017-11-26T11:18:39.947Z,2.80
2017-11-26T11:21:07.529Z,2.80
2017-11-26T11:23:35.105Z,2.80
2017-11-26T11:26:03.415Z,3.00
2017-11-26T11:28:30.948Z,3.00
2017-11-26T11:30:58.531Z,3.10
2017-11-26T11:33:26.080Z,3.30
2017-11-26T11:35:53.650Z,3.40
2017-11-26T11:38:21.196Z,3.50
2017-11-26T11:40:48.836Z,3.60
2017-11-26T11:43:16.428Z,3.80
2017-11-26T11:45:44.018Z,3.90
2017-11-26T11:48:11.551Z,4.00
2017-11-26T11:50:39.107Z,4.00
2017-11-26T11:53:06.789Z,3.90
2017-11-26T11:55:34.345Z,4.00
2017-11-26T11:58:01.891Z,3.80
2017-11-26T12:00:29.459Z,3.70
2017-11-26T12:03:00.284Z,3.60
2017-11-26T12:05:27.855Z,3.50
2017-11-26T12:07:55.457Z,3.50
2017-11-26T12:10:23.861Z,3.40
2017-11-26T12:12:51.433Z,3.40
2017-11-26T12:15:19.016Z,3.30
2017-11-26T12:17:51.064Z,3.20
2017-11-26T12:20:25.470Z,3.30
2017-11-26T12:22:53.056Z,3.20
2017-11-26T12:25:20.592Z,3.30
2017-11-26T12:27:56.256Z,3.50
2017-11-26T12:30:24.692Z,3.60
2017-11-26T12:32:52.301Z,3.60
2017-11-26T12:35:19.913Z,3.70
2017-11-26T12:37:47.453Z,3.80
2017-11-26T12:40:14.995Z,3.90
2017-11-26T12:42:42.548Z,3.90
2017-11-26T12:45:10.084Z,4.00
2017-11-26T12:47:37.628Z,4.10
2017-11-26T12:50:05.192Z,4.10
2017-11-26T12:52:49.634Z,4.20
2017-11-26T12:55:17.197Z,4.20
2017-11-26T12:57:44.743Z,4.20
2017-11-26T13:00:12.277Z,4.30
2017-11-26T13:02:39.816Z,4.40
2017-11-26T13:05:08.231Z,4.20
2017-11-26T13:07:35.777Z,4.20
2017-11-26T13:10:03.333Z,4.20
2017-11-26T13:12:30.920Z,4.20
2017-11-26T13:14:58.489Z,4.10
2017-11-26T13:17:26.106Z,4.00
2017-11-26T13:19:53.670Z,4.00
2017-11-26T13:22:21.213Z,3.90
2017-11-26T13:24:49.516Z,3.90
2017-11-26T13:27:17.073Z,3.90
2017-11-26T13:29:44.623Z,3.90
2017-11-26T13:32:12.178Z,3.90
2017-11-26T13:34:40.505Z,3.90
2017-11-26T13:37:08.816Z,3.80
2017-11-26T13:39:36.403Z,3.90
2017-11-26T13:42:04.056Z,3.80
2017-11-26T13:44:32.363Z,3.80
2017-11-26T13:46:59.904Z,3.80
2017-11-26T13:49:27.440Z,3.80
2017-11-26T13:51:55.980Z,3.80
2017-11-26T13:54:23.584Z,3.80
2017-11-26T13:56:51.920Z,3.70
2017-11-26T13:59:26.099Z,3.70
2017-11-26T14:01:53.709Z,3.70
2017-11-26T14:04:21.248Z,3.70
2017-11-26T14:06:48.997Z,3.80
2017-11-26T14:09:16.643Z,3.90
2017-11-26T14:11:47.067Z,3.90
2017-11-26T14:14:14.674Z,3.90
2017-11-26T14:16:42.239Z,4.00
2017-11-26T14:19:09.792Z,3.90
2017-11-26T14:21:39.293Z,3.90
2017-11-26T14:24:06.862Z,3.80
2017-11-26T14:26:34.411Z,3.90
2017-11-26T14:29:01.969Z,3.90
2017-11-26T14:31:33.499Z,3.80
2017-11-26T14:34:01.801Z,3.80
2017-11-26T14:36:29.346Z,3.80
2017-11-26T14:38:56.889Z,3.70
2017-11-26T14:41:46.875Z,3.60
2017-11-26T14:44:15.184Z,3.60
2017-11-26T14:46:42.770Z,3.60
2017-11-26T14:49:11.111Z,3.60
2017-11-26T14:51:39.633Z,3.60
2017-11-26T14:54:07.192Z,3.60
2017-11-26T14:56:34.785Z,3.60
2017-11-26T14:59:06.729Z,3.50
2017-11-26T15:01:34.285Z,3.50
2017-11-26T15:04:08.480Z,3.40
2017-11-26T15:06:36.033Z,3.30
2017-11-26T15:09:03.620Z,3.20
2017-11-26T15:11:32.155Z,3.20
2017-11-26T15:14:18.186Z,3.10
2017-11-26T15:16:45.764Z,3.10
2017-11-26T15:19:13.369Z,3.10
2017-11-26T15:21:47.561Z,3.10
2017-11-26T15:24:16.014Z,3.10
2017-11-26T15:26:43.633Z,3.10
2017-11-26T15:29:11.193Z,3.10
2017-11-26T15:31:38.735Z,3.10
2017-11-26T15:34:12.786Z,3.10
2017-11-26T15:36:40.341Z,3.10
2017-11-26T15:39:07.892Z,3.10
2017-11-26T15:41:45.595Z,3.10
2017-11-26T15:44:13.206Z,3.10
2017-11-26T15:46:41.564Z,3.10
2017-11-26T15:49:09.143Z,3.10
2017-11-26T15:51:37.718Z,3.00
2017-11-26T15:54:09.851Z,3.00
2017-11-26T15:56:37.444Z,3.00
2017-11-26T15:59:04.991Z,3.00
2017-11-26T16:01:32.567Z,3.00
2017-11-26T16:04:00.150Z,3.00
2017-11-26T16:06:28.493Z,2.90
2017-11-26T16:08:57.601Z,2.90
2017-11-26T16:11:25.144Z,2.90
2017-11-26T16:13:52.741Z,2.80
2017-11-26T16:16:20.327Z,2.80
2017-11-26T16:18:47.948Z,2.90
2017-11-26T16:21:15.554Z,2.90
2017-11-26T16:23:43.112Z,2.90
2017-11-26T16:26:10.677Z,2.90
2017-11-26T16:28:38.240Z,2.90
2017-11-26T16:31:05.817Z,2.90
2017-11-26T16:33:33.389Z,2.90
2017-11-26T16:36:00.972Z,2.90
2017-11-26T16:38:28.601Z,2.80
2017-11-26T16:40:56.248Z,2.80
2017-11-26T16:43:23.824Z,2.80
2017-11-26T16:45:51.415Z,2.70
2017-11-26T16:48:20.503Z,2.60
2017-11-26T16:50:49.487Z,2.50
2017-11-26T16:53:17.872Z,2.40
2017-11-26T16:55:45.429Z,2.40
2017-11-26T16:58:13.773Z,2.20
2017-11-26T17:00:41.337Z,2.20
2017-11-26T17:03:08.927Z,2.10
2017-11-26T17:05:36.491Z,2.00
2017-11-26T17:08:04.032Z,1.90
2017-11-26T17:10:31.610Z,1.80
2017-11-26T17:12:59.170Z,1.70
2017-11-26T17:15:31.106Z,1.50
2017-11-26T17:17:58.686Z,1.50
2017-11-26T17:20:26.237Z,1.50
2017-11-26T17:22:53.816Z,1.60
2017-11-26T17:25:21.353Z,1.60
2017-11-26T17:27:48.934Z,1.70
2017-11-26T17:30:16.496Z,1.80
2017-11-26T17:32:44.821Z,1.90
2017-11-26T17:35:13.200Z,1.90
2017-11-26T17:37:41.536Z,2.00
2017-11-26T17:40:09.176Z,2.00
2017-11-26T17:42:36.721Z,2.00
2017-11-26T17:45:04.309Z,2.10
2017-11-26T17:47:31.877Z,2.10
2017-11-26T17:49:59.468Z,2.10
2017-11-26T17:52:27.805Z,2.10
2017-11-26T17:54:55.450Z,2.10
2017-11-26T17:57:23.032Z,2.00
2017-11-26T18:00:00.926Z,2.00
2017-11-26T18:02:28.502Z,1.90
2017-11-26T18:04:56.032Z,1.90
2017-11-26T18:07:23.593Z,1.90
2017-11-26T18:09:51.235Z,1.80
2017-11-26T18:12:18.864Z,1.80
2017-11-26T18:14:46.418Z,1.80
2017-11-26T18:17:13.996Z,1.80
2017-11-26T18:19:41.530Z,1.70
2017-11-26T18:22:09.093Z,1.70
2017-11-26T18:24:36.658Z,1.70
2017-11-26T18:27:04.241Z,1.60
2017-11-26T18:29:32.565Z,1.60
2017-11-26T18:32:00.111Z,1.60
2017-11-26T18:34:27.681Z,1.60
2017-11-26T18:36:55.228Z,1.70
2017-11-26T18:39:22.787Z,1.70
2017-11-26T18:41:50.338Z,1.80
2017-11-26T18:44:17.901Z,1.80
2017-11-26T18:46:45.489Z,1.80
2017-11-26T18:49:13.043Z,1.90
2017-11-26T18:51:40.632Z,1.90
2017-11-26T18:54:08.192Z,1.90
2017-11-26T18:56:35.768Z,1.90
2017-11-26T18:59:04.129Z,2.00
2017-11-26T19:01:31.692Z,2.00
2017-11-26T19:03:59.262Z,2.00
2017-11-26T19:06:26.800Z,2.00
2017-11-26T19:08:56.272Z,2.10
2017-11-26T19:11:36.489Z,2.10
2017-11-26T19:14:04.052Z,2.10
2017-11-26T19:16:31.588Z,2.10
2017-11-26T19:19:01.184Z,2.10
2017-11-26T19:21:28.741Z,2.10
2017-11-26T19:23:56.338Z,2.10
2017-11-26T19:26:23.881Z,2.00
2017-11-26T19:28:51.443Z,2.10
2017-11-26T19:31:19.019Z,2.00
2017-11-26T19:33:46.593Z,2.00
2017-11-26T19:36:16.905Z,2.10
2017-11-26T19:38:44.479Z,2.10
2017-11-26T19:41:12.849Z,2.10
2017-11-26T19:43:41.884Z,2.20
2017-11-26T19:46:09.459Z,2.10
2017-11-26T19:48:39.310Z,2.20
2017-11-26T19:51:06.860Z,2.20
2017-11-26T19:53:44.252Z,2.20
2017-11-26T19:56:11.887Z,2.20
2017-11-26T19:58:45.737Z,2.20
2017-11-26T20:01:19.396Z,2.20
2017-11-26T20:03:46.953Z,2.20
2017-11-26T20:06:14.501Z,2.20
2017-11-26T20:09:06.161Z,2.10
2017-11-26T20:11:33.712Z,2.10
2017-11-26T20:14:01.272Z,2.10
2017-11-26T20:16:28.808Z,2.00
2017-11-26T20:18:56.359Z,2.00
2017-11-26T20:21:23.917Z,2.00
2017-11-26T20:23:51.459Z,1.90
2017-11-26T20:26:19.767Z,1.90
2017-11-26T20:28:47.305Z,1.90
2017-11-26T20:31:15.605Z,1.90
2017-11-26T20:33:55.305Z,1.90
2017-11-26T20:36:22.851Z,1.90
2017-11-26T20:38:50.431Z,1.80
2017-11-26T20:41:18.752Z,1.70
2017-11-26T20:43:46.288Z,1.70
2017-11-26T20:46:14.601Z,1.80
2017-11-26T20:48:42.268Z,1.80
2017-11-26T20:51:09.815Z,1.80
2017-11-26T20:53:37.349Z,1.80
2017-11-26T20:56:04.898Z,1.90
2017-11-26T20:58:33.218Z,1.90
2017-11-26T21:01:01.153Z,1.90
2017-11-26T21:03:33.107Z,1.90
2017-11-26T21:06:01.450Z,1.80
2017-11-26T21:08:29.776Z,1.90
2017-11-26T21:10:58.113Z,1.90
2017-11-26T21:13:25.723Z,1.80
2017-11-26T21:15:53.272Z,1.90
2017-11-26T21:18:21.586Z,1.90
2017-11-26T21:20:52.445Z,1.90
2017-11-26T21:23:25.908Z,1.90
2017-11-26T21:25:53.449Z,1.90
2017-11-26T21:28:21.776Z,2.00
2017-11-26T21:30:49.320Z,2.00
2017-11-26T21:33:16.911Z,2.00
2017-11-26T21:35:44.440Z,2.00
2017-11-26T21:38:11.976Z,2.00
2017-11-26T21:40:39.523Z,2.10
2017-11-26T21:43:07.839Z,2.00
2017-11-26T21:45:35.403Z,2.00
2017-11-26T21:48:03.728Z,2.10
2017-11-26T21:50:31.297Z,2.10
2017-11-26T21:52:59.612Z,2.10
2017-11-26T21:55:27.180Z,2.10
2017-11-26T21:57:54.733Z,2.10
2017-11-26T22:00:22.272Z,2.20
2017-11-26T22:02:49.822Z,2.20
2017-11-26T22:05:18.133Z,2.20
2017-11-26T22:07:45.671Z,2.20
2017-11-26T22:10:13.212Z,2.20
2017-11-26T22:12:41.595Z,2.20
2017-11-26T22:15:09.918Z,2.20
2017-11-26T22:17:37.700Z,2.20
2017-11-26T22:20:05.255Z,2.20
2017-11-26T22:22:32.834Z,2.20
2017-11-26T22:25:00.368Z,2.20
2017-11-26T22:27:28.687Z,2.20
2017-11-26T22:29:56.993Z,2.20
2017-11-26T22:32:24.573Z,2.20
2017-11-26T22:34:52.119Z,2.30
2017-11-26T22:37:19.652Z,2.30
2017-11-26T22:39:47.962Z,2.20
2017-11-26T22:42:15.503Z,2.20
2017-11-26T22:44:43.060Z,2.20
2017-11-26T22:47:10.600Z,2.20
2017-11-26T22:49:38.956Z,2.20
2017-11-26T22:52:06.487Z,2.20
2017-11-26T22:54:34.047Z,2.20
2017-11-26T22:57:01.591Z,2.10
2017-11-26T22:59:29.130Z,2.10
2017-11-26T23:01:57.427Z,2.10
2017-11-26T23:04:24.985Z,2.10
2017-11-26T23:06:52.528Z,2.10
2017-11-26T23:09:20.845Z,2.10
2017-11-26T23:11:48.386Z,2.10
2017-11-26T23:14:15.920Z,2.10
2017-11-26T23:16:44.245Z,2.00
2017-11-26T23:19:11.780Z,2.00
2017-11-26T23:21:39.346Z,2.00
2017-11-26T23:24:06.896Z,2.00
2017-11-26T23:26:34.444Z,2.00
2017-11-26T23:29:02.793Z,1.90
2017-11-26T23:31:30.346Z,1.90
2017-11-26T23:33:57.897Z,1.90
2017-11-26T23:36:25.444Z,1.90
2017-11-26T23:38:53.041Z,1.90
2017-11-26T23:41:20.610Z,1.90
2017-11-26T23:43:48.173Z,1.90
2017-11-26T23:46:16.484Z,2.00
2017-11-26T23:48:44.035Z,2.00
2017-11-26T23:51:11.580Z,2.00
2017-11-26T23:53:39.884Z,2.10
2017-11-26T23:56:07.414Z,2.10
2017-11-26T23:58:35.712Z,2.10
